Time;durP1;ratioP1;P1;durP2;ratioP2;P2;SDS_P1;SDS_P2;PMS_P1;PMS_P2;Temp;Humidity;BMP_temperature;BMP_pressure;BME280_temperature;BME280_humidity;BME280_pressure;Samples;Min_cycle;Max_cycle;Signal;HPM_P1;HPM_P2
2022/07/27 00:02:08;;;;;;;1.70;0.68;;;9.00;99.90;;;;;;5054031;28;20045;-71
2022/07/27 00:04:35;;;;;;;2.42;0.98;;;9.10;99.90;;;;;;5054307;28;20017;-72
2022/07/27 00:07:02;;;;;;;4.72;0.73;;;9.10;99.90;;;;;;5054250;28;20436;-71
2022/07/27 00:09:29;;;;;;;2.38;0.73;;;9.20;99.90;;;;;;5054151;28;20032;-71
2022/07/27 00:11:57;;;;;;;5.55;0.90;;;9.20;99.90;;;;;;5053814;28;20491;-71
2022/07/27 00:14:24;;;;;;;2.58;1.10;;;9.30;99.90;;;;;;5052609;28;20048;-71
2022/07/27 00:16:51;;;;;;;2.95;0.85;;;9.30;99.90;;;;;;5053922;28;20025;-71
2022/07/27 00:19:19;;;;;;;7.13;1.05;;;9.30;99.90;;;;;;5053865;28;20104;-71
2022/07/27 00:21:57;;;;;;;3.78;0.70;;;9.40;99.90;;;;;;5053968;28;20070;-71
2022/07/27 00:24:25;;;;;;;2.60;0.60;;;9.40;99.90;;;;;;5054042;28;20079;-72
2022/07/27 00:26:52;;;;;;;3.28;0.68;;;9.50;99.90;;;;;;5053957;28;20063;-72
2022/07/27 00:29:20;;;;;;;2.38;0.90;;;9.50;99.90;;;;;;5053748;28;20032;-72
2022/07/27 00:31:47;;;;;;;4.57;1.70;;;9.60;99.90;;;;;;5053778;28;20041;-71
2022/07/27 00:34:15;;;;;;;3.45;0.88;;;9.70;99.90;;;;;;5053487;28;20032;-71
2022/07/27 00:36:42;;;;;;;5.00;0.90;;;9.70;99.90;;;;;;5053477;28;20025;-71
2022/07/27 00:39:09;;;;;;;1.77;0.90;;;9.80;99.90;;;;;;5053449;28;20098;-71
2022/07/27 00:41:37;;;;;;;2.70;1.00;;;9.80;99.90;;;;;;5053576;28;20024;-70
2022/07/27 00:44:05;;;;;;;0.77;0.45;;;9.90;99.90;;;;;;5053565;28;20363;-71
2022/07/27 00:46:33;;;;;;;2.83;0.80;;;10.00;99.90;;;;;;5053504;28;20021;-72
2022/07/27 00:49:00;;;;;;;1.33;0.68;;;10.00;99.90;;;;;;5053439;28;20025;-72
2022/07/27 00:51:28;;;;;;;3.67;0.70;;;10.10;99.90;;;;;;5053507;28;20061;-71
2022/07/27 00:53:56;;;;;;;3.67;1.02;;;10.20;99.90;;;;;;5053172;28;20511;-71
2022/07/27 00:56:23;;;;;;;2.80;0.90;;;10.30;99.90;;;;;;5053245;28;20033;-71
2022/07/27 00:58:52;;;;;;;3.53;1.00;;;10.40;99.90;;;;;;5053031;28;20056;-69
2022/07/27 01:01:20;;;;;;;4.75;0.98;;;10.40;99.90;;;;;;5052760;28;20033;-71
2022/07/27 01:03:47;;;;;;;2.10;0.90;;;10.40;99.90;;;;;;5053237;28;20056;-70
2022/07/27 01:06:15;;;;;;;1.90;0.65;;;10.50;99.90;;;;;;5053194;28;20025;-71
2022/07/27 01:08:43;;;;;;;1.52;0.75;;;10.50;99.90;;;;;;5053096;28;20497;-71
2022/07/27 01:11:11;;;;;;;1.83;1.08;;;10.60;99.90;;;;;;5053318;28;20036;-71
2022/07/27 01:13:38;;;;;;;2.88;1.23;;;10.70;99.90;;;;;;5053049;28;20543;-71
2022/07/27 01:16:07;;;;;;;2.67;1.00;;;10.80;99.90;;;;;;5053362;28;20079;-72
2022/07/27 01:18:37;;;;;;;3.40;1.00;;;10.90;99.90;;;;;;5052977;28;20025;-70
2022/07/27 01:21:07;;;;;;;3.47;0.63;;;10.90;99.90;;;;;;5053583;28;20059;-72
2022/07/27 01:23:38;;;;;;;6.22;0.88;;;10.90;99.90;;;;;;5053184;28;20029;-70
2022/07/27 01:26:06;;;;;;;3.75;1.08;;;10.90;99.90;;;;;;5053196;28;20017;-71
2022/07/27 01:28:34;;;;;;;5.22;2.17;;;11.10;99.90;;;;;;5052930;28;20028;-70
2022/07/27 01:31:01;;;;;;;4.15;1.00;;;11.10;99.90;;;;;;5053093;28;20025;-70
2022/07/27 01:33:28;;;;;;;2.30;0.90;;;11.10;99.90;;;;;;5053086;28;20025;-71
2022/07/27 01:35:57;;;;;;;4.13;0.82;;;11.10;99.90;;;;;;5053077;28;20025;-72
2022/07/27 01:38:24;;;;;;;2.83;1.23;;;11.20;99.90;;;;;;5053134;28;20091;-71
2022/07/27 01:40:56;;;;;;;3.83;0.50;;;11.40;99.90;;;;;;5053091;28;20018;-69
2022/07/27 01:43:24;;;;;;;3.83;1.00;;;11.50;99.90;;;;;;5052992;28;20083;-70
2022/07/27 01:45:51;;;;;;;8.07;0.98;;;11.50;99.90;;;;;;5052715;28;20104;-72
2022/07/27 01:48:18;;;;;;;2.22;0.90;;;11.60;99.90;;;;;;5052709;28;20375;-70
2022/07/27 01:50:46;;;;;;;1.65;0.80;;;11.80;99.90;;;;;;5052919;28;20021;-71
2022/07/27 01:53:14;;;;;;;3.10;1.35;;;11.80;99.90;;;;;;5052881;28;20041;-69
2022/07/27 01:55:41;;;;;;;2.88;0.63;;;11.90;99.90;;;;;;5052835;28;20477;-70
2022/07/27 01:58:09;;;;;;;1.15;0.50;;;11.90;99.90;;;;;;5052688;28;20040;-70
2022/07/27 02:00:36;;;;;;;3.03;0.68;;;12.00;99.90;;;;;;5052780;28;20021;-71
2022/07/27 02:03:06;;;;;;;1.50;0.52;;;12.00;99.90;;;;;;5052597;28;20044;-70
2022/07/27 02:05:33;;;;;;;1.90;0.47;;;12.00;99.90;;;;;;5052752;28;20029;-70
2022/07/27 02:08:01;;;;;;;6.15;0.68;;;12.00;99.90;;;;;;5052663;28;20351;-70
2022/07/27 02:10:28;;;;;;;1.63;0.50;;;12.10;99.90;;;;;;5052848;28;20021;-71
2022/07/27 02:12:55;;;;;;;1.33;0.52;;;12.00;99.90;;;;;;5055558;28;20433;-70
2022/07/27 02:15:25;;;;;;;1.98;0.93;;;12.10;99.90;;;;;;5056129;28;20025;-70
2022/07/27 02:17:53;;;;;;;1.85;0.52;;;12.10;99.90;;;;;;5056412;28;20033;-71
2022/07/27 02:20:24;;;;;;;3.83;0.77;;;12.10;99.90;;;;;;5056077;28;20388;-70
2022/07/27 02:22:52;;;;;;;3.45;0.80;;;12.20;99.90;;;;;;5056467;28;20414;-70
2022/07/27 02:25:19;;;;;;;4.70;0.88;;;12.30;99.90;;;;;;5055996;28;20053;-69
2022/07/27 02:27:48;;;;;;;3.08;0.70;;;12.30;99.90;;;;;;5055969;28;20040;-69
2022/07/27 02:30:15;;;;;;;1.02;0.40;;;12.30;99.90;;;;;;5055866;28;20095;-69
2022/07/27 02:32:43;;;;;;;0.70;0.57;;;12.40;99.90;;;;;;5055755;28;20033;-70
2022/07/27 02:35:11;;;;;;;2.00;0.80;;;12.40;99.90;;;;;;5055802;28;20032;-69
2022/07/27 02:37:38;;;;;;;3.88;0.90;;;12.50;99.90;;;;;;5055767;28;20120;-71
2022/07/27 02:40:08;;;;;;;1.98;0.73;;;12.40;99.90;;;;;;5055843;28;20488;-70
2022/07/27 02:42:36;;;;;;;1.35;0.60;;;12.40;99.90;;;;;;5055850;28;20033;-70
2022/07/27 02:45:04;;;;;;;1.65;0.63;;;12.40;99.90;;;;;;5055689;28;20025;-72
2022/07/27 02:47:31;;;;;;;3.50;0.88;;;12.40;99.90;;;;;;5055510;28;20378;-71
2022/07/27 02:49:58;;;;;;;3.17;0.50;;;12.40;99.90;;;;;;5055778;28;20028;-69
2022/07/27 02:52:25;;;;;;;4.22;0.60;;;12.40;99.90;;;;;;5055415;28;20102;-72
2022/07/27 02:54:52;;;;;;;2.35;0.82;;;12.50;99.90;;;;;;5055348;28;20026;-73
2022/07/27 02:57:20;;;;;;;4.00;0.82;;;12.60;99.90;;;;;;5055355;28;20100;-71
2022/07/27 02:59:47;;;;;;;3.75;1.08;;;12.70;99.90;;;;;;5055444;28;20462;-72
2022/07/27 03:02:14;;;;;;;3.22;0.60;;;12.70;99.90;;;;;;5055217;28;20057;-71
2022/07/27 03:04:47;;;;;;;1.42;0.40;;;12.70;99.90;;;;;;5055408;28;20073;-70
2022/07/27 03:07:14;;;;;;;2.55;0.95;;;12.70;99.90;;;;;;5055232;28;20104;-70
2022/07/27 03:09:41;;;;;;;2.25;0.93;;;12.80;99.90;;;;;;5055243;28;20025;-73
2022/07/27 03:12:09;;;;;;;3.30;0.70;;;12.80;99.90;;;;;;5055263;28;20025;-69
2022/07/27 03:14:39;;;;;;;8.13;0.95;;;12.80;99.90;;;;;;5055003;28;20433;-71
2022/07/27 03:17:07;;;;;;;3.10;0.93;;;12.80;99.90;;;;;;5055227;28;20104;-72
2022/07/27 03:19:37;;;;;;;4.47;0.73;;;12.80;99.90;;;;;;5055038;28;20025;-71
2022/07/27 03:22:04;;;;;;;3.95;0.77;;;12.80;99.90;;;;;;5054833;28;20057;-71
2022/07/27 03:24:32;;;;;;;2.80;0.93;;;12.80;99.90;;;;;;5054998;28;20096;-72
2022/07/27 03:26:59;;;;;;;2.08;0.90;;;13.00;99.90;;;;;;5054914;28;20478;-69
2022/07/27 03:29:26;;;;;;;2.95;0.40;;;13.00;99.90;;;;;;5054869;28;20060;-72
2022/07/27 03:31:56;;;;;;;4.47;0.80;;;13.10;99.90;;;;;;5054789;28;20036;-70
2022/07/27 03:34:23;;;;;;;3.15;0.68;;;13.20;99.90;;;;;;5054624;28;20033;-72
2022/07/27 03:36:51;;;;;;;3.65;0.95;;;13.20;99.90;;;;;;5054722;28;20474;-71
2022/07/27 03:39:18;;;;;;;3.58;0.57;;;13.20;99.90;;;;;;5054765;28;20021;-73
2022/07/27 03:41:45;;;;;;;3.17;0.75;;;13.10;99.90;;;;;;5054798;28;20025;-71
2022/07/27 03:44:12;;;;;;;5.60;1.30;;;13.20;99.90;;;;;;5054590;28;20013;-70
2022/07/27 03:46:40;;;;;;;3.05;0.77;;;13.20;99.90;;;;;;5054535;28;20029;-70
2022/07/27 03:49:07;;;;;;;3.92;0.80;;;13.20;99.90;;;;;;5054593;28;20028;-71
2022/07/27 03:51:34;;;;;;;5.10;0.50;;;13.30;99.90;;;;;;5054414;28;20024;-70
2022/07/27 03:54:02;;;;;;;2.47;0.63;;;13.30;99.90;;;;;;5054508;28;20031;-72
2022/07/27 03:56:31;;;;;;;3.05;0.70;;;13.30;99.90;;;;;;5054246;28;20023;-72
2022/07/27 03:59:00;;;;;;;1.48;0.60;;;13.30;99.90;;;;;;5054361;28;20477;-70
2022/07/27 04:01:27;;;;;;;2.78;0.80;;;13.30;99.90;;;;;;5054265;28;20029;-72
2022/07/27 04:03:55;;;;;;;1.52;0.60;;;13.30;99.90;;;;;;5053192;28;20450;-70
2022/07/27 04:06:26;;;;;;;4.70;0.82;;;13.30;99.90;;;;;;5054377;28;20045;-72
2022/07/27 04:08:53;;;;;;;2.83;0.98;;;13.30;99.90;;;;;;5054279;28;20032;-73
2022/07/27 04:11:21;;;;;;;5.20;1.08;;;13.30;99.90;;;;;;5053789;28;20103;-71
2022/07/27 04:13:50;;;;;;;2.58;0.70;;;13.20;99.90;;;;;;5053927;28;20029;-70
2022/07/27 04:16:19;;;;;;;2.28;0.68;;;13.20;99.90;;;;;;5053960;28;20036;-71
2022/07/27 04:18:52;;;;;;;1.65;0.80;;;13.20;99.90;;;;;;5053987;28;20017;-70
2022/07/27 04:21:24;;;;;;;6.00;1.00;;;13.30;99.90;;;;;;5054129;28;20049;-70
2022/07/27 04:23:52;;;;;;;1.30;0.40;;;13.30;99.90;;;;;;5054047;28;20017;-70
2022/07/27 04:26:20;;;;;;;3.17;0.82;;;13.30;99.90;;;;;;5053808;28;20017;-71
2022/07/27 04:28:47;;;;;;;1.55;0.55;;;13.40;99.90;;;;;;5053852;28;20071;-71
2022/07/27 04:31:15;;;;;;;3.35;0.70;;;13.30;99.90;;;;;;5053597;28;20492;-71
2022/07/27 04:33:46;;;;;;;1.75;0.73;;;13.40;99.90;;;;;;5053383;28;20190;-71
2022/07/27 04:36:14;;;;;;;3.00;0.40;;;13.40;99.90;;;;;;5053486;28;20138;-71
2022/07/27 04:38:42;;;;;;;1.42;0.50;;;13.40;99.90;;;;;;5054047;28;20111;-73
2022/07/27 04:41:09;;;;;;;1.52;0.40;;;13.40;99.90;;;;;;5053673;28;20386;-71
2022/07/27 04:43:37;;;;;;;2.20;1.15;;;13.40;99.90;;;;;;5053474;28;20033;-73
2022/07/27 04:46:05;;;;;;;0.88;0.47;;;13.30;99.90;;;;;;5053528;28;20021;-71
2022/07/27 04:48:34;;;;;;;1.55;0.50;;;13.30;99.90;;;;;;5053397;28;20036;-72
2022/07/27 04:51:02;;;;;;;2.67;0.70;;;13.30;99.90;;;;;;5053618;28;20492;-72
2022/07/27 04:53:33;;;;;;;4.40;0.68;;;13.30;99.90;;;;;;5053304;28;20098;-71
2022/07/27 04:56:01;;;;;;;1.92;0.80;;;13.30;99.90;;;;;;5053535;28;20120;-73
2022/07/27 04:58:28;;;;;;;2.15;0.70;;;13.40;99.90;;;;;;5053308;28;20029;-72
2022/07/27 05:00:56;;;;;;;2.35;0.93;;;13.50;99.90;;;;;;5053386;28;20025;-71
2022/07/27 05:03:27;;;;;;;3.40;0.90;;;13.50;99.90;;;;;;5052958;28;20425;-70
2022/07/27 05:05:54;;;;;;;2.13;0.75;;;13.50;99.90;;;;;;5053564;28;20108;-71
2022/07/27 05:08:22;;;;;;;4.65;0.85;;;13.40;99.90;;;;;;5052012;28;20431;-71
2022/07/27 05:10:50;;;;;;;3.90;1.02;;;13.40;99.90;;;;;;5053295;28;20432;-72
2022/07/27 05:13:18;;;;;;;2.00;0.50;;;13.30;99.90;;;;;;5053225;28;20040;-71
2022/07/27 05:15:45;;;;;;;1.67;0.40;;;13.30;99.90;;;;;;5053211;28;20025;-72
2022/07/27 05:18:13;;;;;;;4.90;0.73;;;13.30;99.90;;;;;;5053249;28;20466;-72
2022/07/27 05:20:41;;;;;;;6.78;0.82;;;13.20;99.90;;;;;;5053112;28;20391;-71
2022/07/27 05:23:09;;;;;;;2.28;0.70;;;13.20;99.90;;;;;;5053180;28;20030;-70
2022/07/27 05:25:36;;;;;;;3.28;0.65;;;13.30;99.90;;;;;;5053284;28;20032;-71
2022/07/27 05:28:04;;;;;;;5.13;0.80;;;13.30;99.90;;;;;;5053220;28;20029;-71
2022/07/27 05:30:35;;;;;;;2.58;1.17;;;13.40;99.90;;;;;;5053115;28;20029;-71
2022/07/27 05:33:02;;;;;;;2.22;0.50;;;13.30;99.90;;;;;;5053172;28;20037;-70
2022/07/27 05:35:33;;;;;;;2.80;1.00;;;13.30;99.90;;;;;;5052908;28;20021;-70
2022/07/27 05:38:01;;;;;;;3.15;0.95;;;13.30;99.90;;;;;;5053221;28;20048;-72
2022/07/27 05:40:28;;;;;;;3.83;0.82;;;13.30;99.90;;;;;;5052865;28;20535;-71
2022/07/27 05:42:57;;;;;;;3.30;1.00;;;13.20;99.90;;;;;;5052933;28;20036;-71
2022/07/27 05:45:25;;;;;;;3.42;0.75;;;13.20;99.90;;;;;;5052992;28;20103;-71
2022/07/27 05:47:58;;;;;;;2.65;0.95;;;13.20;99.90;;;;;;5056048;28;20033;-70
2022/07/27 05:50:25;;;;;;;2.33;0.55;;;13.10;99.90;;;;;;5056923;28;20428;-72
2022/07/27 05:52:57;;;;;;;3.65;0.82;;;13.00;99.90;;;;;;5056673;28;20478;-70
2022/07/27 05:55:25;;;;;;;2.38;0.47;;;13.10;99.90;;;;;;5056868;28;20063;-72
2022/07/27 05:57:53;;;;;;;1.70;0.55;;;13.00;99.90;;;;;;5056559;28;20025;-70
2022/07/27 06:00:21;;;;;;;2.35;0.70;;;13.00;99.90;;;;;;5056545;28;20049;-72
2022/07/27 06:02:48;;;;;;;2.25;0.85;;;13.00;99.90;;;;;;5056432;28;20440;-70
2022/07/27 06:05:16;;;;;;;5.28;1.17;;;12.90;99.90;;;;;;5056602;28;20025;-71
2022/07/27 06:07:59;;;;;;;4.78;0.47;;;12.90;99.90;;;;;;5056401;28;20037;-72
2022/07/27 06:10:31;;;;;;;1.75;0.93;;;12.90;99.90;;;;;;5056390;28;20021;-71
2022/07/27 06:13:00;;;;;;;2.65;0.77;;;12.90;99.90;;;;;;5056480;28;20116;-71
2022/07/27 06:15:28;;;;;;;1.55;0.55;;;12.80;99.90;;;;;;5056338;28;20028;-71
2022/07/27 06:17:59;;;;;;;2.38;0.75;;;12.80;99.90;;;;;;5056373;28;20029;-71
2022/07/27 06:20:27;;;;;;;3.88;0.70;;;12.80;99.90;;;;;;5056458;28;20083;-70
2022/07/27 06:23:02;;;;;;;4.38;0.85;;;12.70;99.90;;;;;;5056192;28;20095;-72
2022/07/27 06:25:33;;;;;;;3.03;0.80;;;12.70;99.90;;;;;;5056117;28;20029;-72
2022/07/27 06:28:02;;;;;;;1.75;0.57;;;12.70;99.90;;;;;;5056190;28;20029;-73
2022/07/27 06:30:29;;;;;;;4.53;0.82;;;12.60;99.90;;;;;;5056137;28;20108;-71
2022/07/27 06:32:58;;;;;;;1.27;0.60;;;12.60;99.90;;;;;;5056073;28;20037;-70
2022/07/27 06:35:26;;;;;;;4.80;0.95;;;12.60;99.90;;;;;;5055771;28;20021;-71
2022/07/27 06:37:53;;;;;;;2.75;0.80;;;12.60;99.90;;;;;;5055881;28;20061;-72
2022/07/27 06:40:21;;;;;;;4.07;0.63;;;12.60;99.90;;;;;;5055856;28;20017;-70
2022/07/27 06:42:49;;;;;;;8.32;0.65;;;12.60;99.90;;;;;;5055871;28;20047;-70
2022/07/27 06:45:17;;;;;;;3.28;0.68;;;12.50;99.90;;;;;;5055726;28;20374;-72
2022/07/27 06:47:44;;;;;;;3.38;0.88;;;12.50;99.90;;;;;;5055566;28;20068;-71
2022/07/27 06:50:12;;;;;;;4.10;0.77;;;12.40;99.90;;;;;;5055552;28;20025;-72
2022/07/27 06:52:40;;;;;;;3.33;0.93;;;12.30;99.90;;;;;;5055548;28;20025;-72
2022/07/27 06:55:08;;;;;;;3.38;1.00;;;12.30;99.90;;;;;;5055317;28;20028;-72
2022/07/27 06:57:40;;;;;;;4.68;1.10;;;12.20;99.90;;;;;;5055047;28;20032;-72
2022/07/27 07:00:09;;;;;;;2.97;0.85;;;12.20;99.90;;;;;;5055542;28;20031;-71
2022/07/27 07:02:37;;;;;;;5.82;1.20;;;12.10;99.90;;;;;;5055203;28;20051;-71
2022/07/27 07:05:05;;;;;;;4.47;0.80;;;12.10;99.90;;;;;;5055266;28;20029;-71
2022/07/27 07:07:32;;;;;;;6.18;0.88;;;12.00;99.90;;;;;;5055288;28;20027;-71
2022/07/27 07:10:00;;;;;;;4.72;0.80;;;12.00;99.90;;;;;;5055261;28;20025;-71
2022/07/27 07:12:28;;;;;;;4.75;1.10;;;12.00;99.90;;;;;;5055254;28;20382;-71
2022/07/27 07:14:55;;;;;;;4.35;1.20;;;11.90;99.90;;;;;;5054947;28;20021;-71
2022/07/27 07:17:23;;;;;;;1.88;0.80;;;11.90;99.90;;;;;;5055117;28;20051;-72
2022/07/27 07:19:53;;;;;;;2.13;1.05;;;11.80;99.90;;;;;;5055189;28;20516;-71
2022/07/27 07:22:21;;;;;;;3.75;1.50;;;11.80;99.90;;;;;;5055101;28;20470;-72
2022/07/27 07:24:52;;;;;;;1.40;0.65;;;11.70;99.90;;;;;;5055094;28;20470;-72
2022/07/27 07:27:22;;;;;;;3.17;0.82;;;11.60;99.90;;;;;;5055109;28;20555;-72
2022/07/27 07:29:50;;;;;;;2.40;0.98;;;11.60;99.90;;;;;;5054977;28;20021;-71
2022/07/27 07:32:23;;;;;;;3.60;1.17;;;11.60;99.90;;;;;;5054814;28;20040;-71
2022/07/27 07:34:52;;;;;;;5.18;0.95;;;11.50;99.90;;;;;;5054605;28;20025;-72
2022/07/27 07:37:20;;;;;;;4.70;1.52;;;11.50;99.90;;;;;;5054702;28;20425;-71
2022/07/27 07:39:48;;;;;;;5.63;1.35;;;11.40;99.90;;;;;;5054741;28;20032;-71
2022/07/27 07:42:16;;;;;;;3.30;1.17;;;11.40;99.90;;;;;;5054568;28;20021;-71
2022/07/27 07:44:43;;;;;;;5.60;1.45;;;11.40;99.90;;;;;;5054617;28;20028;-70
2022/07/27 07:47:12;;;;;;;3.92;1.20;;;11.40;99.90;;;;;;5054489;28;20470;-71
2022/07/27 07:49:39;;;;;;;3.75;1.73;;;11.40;99.90;;;;;;5054425;28;20033;-70
2022/07/27 07:52:08;;;;;;;3.25;1.63;;;11.30;99.90;;;;;;5054516;28;20485;-70
2022/07/27 07:54:35;;;;;;;3.17;1.45;;;11.30;99.90;;;;;;5054274;28;20052;-71
2022/07/27 07:57:03;;;;;;;3.55;1.08;;;11.30;99.90;;;;;;5054320;28;20354;-72
2022/07/27 07:59:33;;;;;;;3.40;1.08;;;11.20;99.90;;;;;;5054341;28;20465;-70
2022/07/27 08:02:02;;;;;;;2.95;1.13;;;11.20;99.90;;;;;;5054146;28;20041;-71
2022/07/27 08:04:30;;;;;;;5.60;1.40;;;11.20;99.90;;;;;;5054234;28;20501;-70
2022/07/27 08:06:58;;;;;;;4.35;1.52;;;11.20;99.90;;;;;;5054202;28;20017;-71
2022/07/27 08:09:27;;;;;;;3.05;1.60;;;11.10;99.90;;;;;;5053408;28;20032;-70
2022/07/27 08:11:55;;;;;;;2.88;1.33;;;11.10;99.90;;;;;;5054048;28;20027;-71
2022/07/27 08:14:25;;;;;;;4.60;2.17;;;11.10;99.90;;;;;;5053826;28;20032;-72
2022/07/27 08:16:58;;;;;;;13.80;7.65;;;11.10;99.90;;;;;;5054093;28;20056;-71
2022/07/27 08:19:25;;;;;;;19.25;13.90;;;11.10;99.90;;;;;;5053952;28;20100;-71
2022/07/27 08:21:53;;;;;;;22.38;16.27;;;11.00;99.90;;;;;;5053830;28;20036;-71
2022/07/27 08:24:27;;;;;;;15.93;11.38;;;11.00;99.90;;;;;;5053740;28;20025;-70
2022/07/27 08:26:54;;;;;;;10.85;7.65;;;11.00;99.90;;;;;;5053787;28;20444;-70
2022/07/27 08:29:22;;;;;;;8.23;3.58;;;10.90;99.90;;;;;;5053983;28;20025;-72
2022/07/27 08:31:50;;;;;;;5.13;2.28;;;10.90;99.90;;;;;;5053722;28;20033;-70
2022/07/27 08:34:17;;;;;;;6.00;2.40;;;10.80;99.90;;;;;;5053811;28;20040;-70
2022/07/27 08:36:48;;;;;;;4.57;1.88;;;10.80;99.90;;;;;;5053511;28;20016;-70
2022/07/27 08:39:19;;;;;;;4.25;1.70;;;10.70;99.90;;;;;;5053743;28;20021;-70
2022/07/27 08:41:47;;;;;;;7.45;1.88;;;10.70;99.90;;;;;;5053844;28;20104;-71
2022/07/27 08:44:15;;;;;;;4.63;1.80;;;10.70;99.90;;;;;;5053678;28;20017;-71
2022/07/27 08:46:45;;;;;;;4.65;1.70;;;10.70;99.90;;;;;;5054070;28;20425;-70
2022/07/27 08:49:18;;;;;;;4.68;1.50;;;10.60;99.90;;;;;;5053481;28;20535;-70
2022/07/27 08:51:47;;;;;;;3.30;1.83;;;10.60;99.90;;;;;;5053435;28;20043;-70
2022/07/27 08:54:19;;;;;;;7.55;1.63;;;10.50;99.90;;;;;;5053427;28;20029;-70
2022/07/27 08:56:47;;;;;;;3.25;1.60;;;10.60;99.90;;;;;;5053490;28;20071;-71
2022/07/27 08:59:14;;;;;;;2.60;1.60;;;10.60;99.90;;;;;;5053532;28;20021;-70
2022/07/27 09:01:42;;;;;;;5.18;1.77;;;10.60;99.90;;;;;;5053159;28;20373;-70
2022/07/27 09:04:10;;;;;;;4.88;1.85;;;10.70;99.90;;;;;;5053593;28;20071;-70
2022/07/27 09:06:45;;;;;;;7.78;2.53;;;10.70;99.90;;;;;;5053319;28;20100;-70
2022/07/27 09:09:14;;;;;;;5.93;1.80;;;10.70;99.90;;;;;;5053492;28;20032;-70
2022/07/27 09:11:43;;;;;;;7.75;2.13;;;10.70;99.90;;;;;;5053041;28;20281;-70
2022/07/27 09:14:13;;;;;;;3.50;1.73;;;10.70;99.90;;;;;;5053187;28;20029;-70
2022/07/27 09:16:40;;;;;;;6.25;1.77;;;10.70;99.90;;;;;;5053106;28;20028;-70
2022/07/27 09:19:11;;;;;;;5.18;1.75;;;10.70;99.90;;;;;;5053343;28;20357;-70
2022/07/27 09:21:42;;;;;;;3.85;1.50;;;10.70;99.90;;;;;;5055641;28;20033;-70
2022/07/27 09:24:12;;;;;;;3.78;1.20;;;10.70;99.90;;;;;;5057508;28;20021;-70
2022/07/27 09:26:40;;;;;;;2.25;1.05;;;10.70;99.90;;;;;;5057226;28;20033;-69
2022/07/27 09:29:13;;;;;;;3.22;1.20;;;10.70;99.90;;;;;;5057280;28;20021;-70
2022/07/27 09:31:46;;;;;;;2.60;1.08;;;10.70;99.90;;;;;;5057125;28;20031;-70
2022/07/27 09:34:27;;;;;;;7.28;0.75;;;10.80;99.90;;;;;;5057291;28;20059;-70
2022/07/27 09:36:57;;;;;;;1.80;0.90;;;10.80;99.90;;;;;;5057008;28;20079;-70
2022/07/27 09:39:26;;;;;;;2.17;1.23;;;10.80;99.90;;;;;;5056980;28;20028;-70
2022/07/27 09:42:00;;;;;;;2.38;1.10;;;10.70;99.90;;;;;;5056428;28;20087;-70
2022/07/27 09:44:37;;;;;;;2.03;0.90;;;10.70;99.90;;;;;;5056923;28;20029;-70
2022/07/27 09:47:29;;;;;;;3.00;0.90;;;10.60;99.90;;;;;;5056838;28;20025;-70
2022/07/27 09:50:18;;;;;;;2.00;1.00;;;10.60;99.90;;;;;;5057057;28;20071;-70
2022/07/27 09:52:46;;;;;;;2.92;1.02;;;10.60;99.90;;;;;;5056816;28;20037;-70
2022/07/27 09:55:14;;;;;;;1.88;0.98;;;10.60;99.90;;;;;;5056585;28;20020;-70
2022/07/27 09:57:58;;;;;;;2.40;0.75;;;10.50;99.90;;;;;;5056648;28;20032;-72
2022/07/27 10:00:26;;;;;;;3.88;0.80;;;10.40;99.90;;;;;;5056672;28;20029;-70
2022/07/27 10:02:59;;;;;;;2.08;0.82;;;10.40;99.90;;;;;;5056244;28;20118;-70
2022/07/27 10:05:26;;;;;;;1.70;0.90;;;10.40;99.90;;;;;;5056615;28;20029;-70
2022/07/27 10:07:55;;;;;;;2.70;0.98;;;10.30;99.90;;;;;;5056302;28;20099;-70
2022/07/27 10:10:23;;;;;;;2.15;1.02;;;10.30;99.90;;;;;;5056308;28;20039;-70
2022/07/27 10:12:51;;;;;;;3.80;1.35;;;10.30;99.90;;;;;;5056354;28;20037;-70
2022/07/27 10:15:19;;;;;;;3.30;1.00;;;10.20;99.90;;;;;;5056157;28;20033;-69
2022/07/27 10:17:48;;;;;;;3.33;1.02;;;10.20;99.90;;;;;;5056304;28;20104;-71
2022/07/27 10:20:17;;;;;;;2.13;0.90;;;10.20;99.90;;;;;;5056036;28;20103;-71
2022/07/27 10:23:00;;;;;;;2.30;1.05;;;10.20;99.90;;;;;;5056124;28;20428;-71
2022/07/27 10:25:32;;;;;;;2.22;0.90;;;10.10;99.90;;;;;;5056156;28;20025;-71
2022/07/27 10:28:16;;;;;;;5.57;1.13;;;10.10;99.90;;;;;;5056131;28;20102;-72
2022/07/27 10:30:43;;;;;;;6.45;1.10;;;10.00;99.90;;;;;;5056139;28;20032;-71
2022/07/27 10:33:19;;;;;;;3.42;0.90;;;10.00;99.90;;;;;;5055031;28;20425;-72
2022/07/27 10:35:46;;;;;;;3.30;1.20;;;10.00;99.90;;;;;;5055866;28;20433;-71
2022/07/27 10:38:17;;;;;;;2.08;0.93;;;9.90;99.90;;;;;;5055831;28;20033;-70
2022/07/27 10:40:48;;;;;;;2.92;0.93;;;9.90;99.90;;;;;;5055941;28;20067;-71
2022/07/27 10:43:20;;;;;;;2.45;0.95;;;9.90;99.90;;;;;;5055948;28;20033;-70
2022/07/27 10:45:51;;;;;;;1.52;0.90;;;9.80;99.90;;;;;;5055835;28;20020;-70
2022/07/27 10:48:48;;;;;;;1.67;1.02;;;9.80;99.90;;;;;;5055747;28;20028;-70
2022/07/27 10:51:16;;;;;;;;;;;9.80;99.90;;;;;;5039676;28;20033;-70
2022/07/27 10:53:50;;;;;;;1.75;1.05;;;9.80;99.90;;;;;;5055434;28;20413;-70
2022/07/27 10:56:46;;;;;;;5.78;1.67;;;9.70;99.90;;;;;;5055367;28;20028;-71
2022/07/27 10:59:14;;;;;;;3.42;0.90;;;9.60;99.90;;;;;;5055539;28;20040;-70
2022/07/27 11:01:58;;;;;;;2.50;1.20;;;9.70;99.90;;;;;;5055501;28;20112;-71
2022/07/27 11:04:28;;;;;;;4.63;1.88;;;9.60;99.90;;;;;;5055338;28;20082;-70
2022/07/27 11:07:03;;;;;;;1.77;0.98;;;9.60;99.90;;;;;;5053960;28;20367;-69
2022/07/27 11:09:37;;;;;;;2.73;1.43;;;9.60;99.90;;;;;;5055613;28;20607;-70
2022/07/27 11:12:06;;;;;;;1.60;0.93;;;9.60;99.90;;;;;;5055391;28;20277;-70
2022/07/27 11:14:53;;;;;;;3.65;0.85;;;9.60;99.90;;;;;;5054950;28;20056;-71
2022/07/27 11:17:27;;;;;;;5.25;1.33;;;9.60;99.90;;;;;;5055268;28;20013;-70
2022/07/27 11:19:59;;;;;;;3.08;1.73;;;9.70;99.90;;;;;;5055224;28;20025;-72
2022/07/27 11:22:37;;;;;;;2.97;1.60;;;9.70;99.90;;;;;;5055057;28;20473;-71
2022/07/27 11:25:06;;;;;;;4.18;1.70;;;9.70;99.90;;;;;;5054937;28;20029;-71
2022/07/27 11:27:46;;;;;;;4.60;1.10;;;9.70;99.90;;;;;;5054870;28;20163;-71
2022/07/27 11:30:29;;;;;;;5.75;1.27;;;9.70;99.90;;;;;;5054998;28;20048;-72
2022/07/27 11:32:56;;;;;;;1.83;1.20;;;9.60;99.90;;;;;;5054903;28;20037;-71
2022/07/27 11:35:24;;;;;;;2.40;1.17;;;9.60;99.90;;;;;;5054820;28;20622;-71
2022/07/27 11:38:05;;;;;;;1.50;1.02;;;9.60;99.90;;;;;;5054753;28;20061;-71
2022/07/27 11:40:50;;;;;;;1.83;1.20;;;9.60;99.90;;;;;;5054787;28;20055;-72
2022/07/27 11:43:40;;;;;;;5.90;1.08;;;9.50;99.90;;;;;;5054494;28;20033;-72
2022/07/27 11:46:22;;;;;;;2.30;1.23;;;9.50;99.90;;;;;;5054217;28;20104;-71
2022/07/27 11:49:05;;;;;;;4.22;1.40;;;9.40;99.90;;;;;;5054669;28;20463;-72
2022/07/27 11:51:38;;;;;;;2.28;1.00;;;9.40;99.90;;;;;;5053453;28;20025;-72
2022/07/27 11:54:13;;;;;;;2.58;1.30;;;9.30;99.90;;;;;;5054416;28;20048;-71
2022/07/27 11:56:42;;;;;;;3.20;1.23;;;9.30;99.90;;;;;;5054472;28;20466;-72
2022/07/27 11:59:13;;;;;;;3.10;1.45;;;9.20;99.90;;;;;;5054493;28;20060;-71
2022/07/27 12:01:49;;;;;;;2.53;1.63;;;9.20;99.90;;;;;;5054538;28;20501;-70
2022/07/27 12:04:23;;;;;;;2.80;1.50;;;9.10;99.90;;;;;;5054451;28;20462;-70
2022/07/27 12:07:06;;;;;;;3.23;1.97;;;9.10;99.90;;;;;;5054286;28;20075;-72
2022/07/27 12:09:36;;;;;;;3.15;1.75;;;9.10;99.90;;;;;;5054291;28;20478;-72
2022/07/27 12:12:13;;;;;;;8.10;3.25;;;9.10;99.90;;;;;;5052934;28;20428;-71
2022/07/27 12:14:49;;;;;;;28.08;11.57;;;9.10;99.90;;;;;;5053758;28;20028;-70
2022/07/27 12:17:30;;;;;;;56.83;27.73;;;9.00;99.90;;;;;;5054058;28;20051;-72
2022/07/27 12:20:05;;;;;;;44.65;19.08;;;9.10;99.90;;;;;;5054696;28;20051;-71
2022/07/27 12:22:38;;;;;;;16.27;6.20;;;9.00;99.90;;;;;;5054109;28;20071;-72
2022/07/27 12:25:13;;;;;;;7.53;3.33;;;9.00;99.90;;;;;;5053991;28;20266;-71
2022/07/27 12:27:51;;;;;;;12.18;2.83;;;9.00;99.90;;;;;;5053933;28;20108;-72
2022/07/27 12:30:41;;;;;;;5.13;3.03;;;9.00;99.90;;;;;;5053870;28;20029;-71
2022/07/27 12:33:26;;;;;;;6.85;3.42;;;9.00;99.90;;;;;;5053916;28;20041;-71
2022/07/27 12:35:54;;;;;;;6.65;4.68;;;8.90;99.90;;;;;;5053492;28;20025;-72
2022/07/27 12:38:22;;;;;;;20.10;10.38;;;8.90;99.90;;;;;;5053693;28;20033;-72
2022/07/27 12:40:54;;;;;;;42.30;21.33;;;8.90;99.90;;;;;;5054014;28;20013;-70
2022/07/27 12:43:24;;;;;;;15.02;8.35;;;8.90;99.90;;;;;;5053714;28;20028;-72
2022/07/27 12:45:53;;;;;;;7.57;3.72;;;8.90;99.90;;;;;;5053569;28;20092;-71
2022/07/27 12:48:20;;;;;;;3.70;2.30;;;8.90;99.90;;;;;;5053471;28;20355;-72
2022/07/27 12:51:03;;;;;;;14.07;5.40;;;8.90;99.90;;;;;;5053940;28;20021;-70
2022/07/27 12:53:31;;;;;;;19.85;8.10;;;8.90;99.90;;;;;;5053459;28;20033;-72
2022/07/27 12:56:02;;;;;;;18.05;7.85;;;8.90;99.90;;;;;;5053133;28;20018;-71
2022/07/27 12:58:29;;;;;;;14.93;7.32;;;8.90;99.90;;;;;;5053819;28;20021;-72
2022/07/27 13:00:57;;;;;;;17.83;7.50;;;8.90;99.90;;;;;;5053266;28;20032;-70
2022/07/27 13:03:24;;;;;;;8.45;3.92;;;8.90;99.90;;;;;;5053248;28;20075;-70